createdAt,value
2023-03-31T06:20:28.142Z,992.29
2023-03-31T06:30:26.222Z,992.07
2023-03-31T06:40:26.220Z,991.91
2023-03-31T06:50:26.271Z,991.90
2023-03-31T07:00:26.165Z,991.92
2023-03-31T07:10:26.268Z,991.80
2023-03-31T07:20:26.298Z,991.63
2023-03-31T07:30:26.352Z,991.43
2023-03-31T07:40:26.150Z,991.29
2023-03-31T07:50:26.364Z,991.10
2023-03-31T08:00:26.223Z,991.05
2023-03-31T08:10:26.394Z,990.79
2023-03-31T08:20:26.353Z,990.58
2023-03-31T08:30:26.234Z,990.40
2023-03-31T08:40:26.502Z,990.36
2023-03-31T08:50:26.363Z,990.07
2023-03-31T09:00:26.328Z,989.93
2023-03-31T09:10:26.280Z,989.89
2023-03-31T09:20:26.353Z,989.88
2023-03-31T09:30:26.284Z,989.77
2023-03-31T09:40:26.484Z,989.77
2023-03-31T09:50:26.679Z,989.74
2023-03-31T10:00:26.415Z,989.56
2023-03-31T10:10:26.375Z,989.35
2023-03-31T10:20:26.746Z,989.35
2023-03-31T10:30:26.496Z,989.33
2023-03-31T10:40:26.372Z,989.14
2023-03-31T10:50:26.457Z,989.17
2023-03-31T11:00:26.593Z,989.19
2023-03-31T11:10:26.561Z,989.14
2023-03-31T11:20:27.267Z,989.19
2023-03-31T11:30:26.515Z,989.14
2023-03-31T11:40:26.561Z,989.09
2023-03-31T11:50:26.544Z,988.83
2023-03-31T12:00:26.480Z,988.86
2023-03-31T12:10:26.537Z,988.73
2023-03-31T12:20:26.496Z,988.65
2023-03-31T12:30:26.566Z,988.67
2023-03-31T12:40:26.632Z,988.43
2023-03-31T12:50:26.497Z,988.40
2023-03-31T13:00:26.529Z,988.34
2023-03-31T13:10:26.643Z,988.26
2023-03-31T13:20:26.701Z,988.12
2023-03-31T13:30:26.756Z,988.10
2023-03-31T13:40:26.728Z,988.01
2023-03-31T13:50:26.580Z,987.96
2023-03-31T14:00:26.745Z,987.82
2023-03-31T14:10:26.615Z,987.70
2023-03-31T14:20:26.878Z,987.85
2023-03-31T14:30:26.538Z,987.83
2023-03-31T14:40:26.726Z,987.81
2023-03-31T14:50:26.681Z,987.75
2023-03-31T15:00:28.014Z,987.78
2023-03-31T15:10:26.704Z,987.71
2023-03-31T15:20:26.782Z,987.66
2023-03-31T15:30:26.853Z,987.56
2023-03-31T15:40:26.898Z,987.73
2023-03-31T15:50:26.674Z,987.69
2023-03-31T16:00:26.616Z,987.68
2023-03-31T16:10:26.693Z,987.61
2023-03-31T16:20:26.647Z,987.55
2023-03-31T16:30:26.922Z,987.44
2023-03-31T16:40:26.892Z,987.44
2023-03-31T16:50:26.743Z,987.29
2023-03-31T17:00:26.950Z,987.35
2023-03-31T17:10:26.776Z,987.25
2023-03-31T17:20:26.958Z,987.14
2023-03-31T17:30:26.797Z,987.16
2023-03-31T17:40:28.081Z,987.27
2023-03-31T17:50:27.038Z,987.42
2023-03-31T18:00:26.898Z,987.42
2023-03-31T18:10:26.995Z,987.42
2023-03-31T18:20:27.044Z,987.32
2023-03-31T18:30:27.192Z,987.36
2023-03-31T18:40:26.947Z,987.46
2023-03-31T18:50:27.125Z,987.74
2023-03-31T19:00:26.875Z,987.79
2023-03-31T19:10:27.156Z,987.93
2023-03-31T19:20:27.119Z,987.95
